sensor_id;sensor_type;location;lat;lon;timestamp;P1;durP1;ratioP1;P2;durP2;ratioP2
29728;SDS011;20055;51.498;11.960;2023-08-21T00:01:22;11.73;;;6.35;;
29728;SDS011;20055;51.498;11.960;2023-08-21T00:03:49;11.18;;;6.57;;
29728;SDS011;20055;51.498;11.960;2023-08-21T00:06:15;13.80;;;6.97;;
29728;SDS011;20055;51.498;11.960;2023-08-21T00:08:41;20.85;;;6.70;;
29728;SDS011;20055;51.498;11.960;2023-08-21T00:11:07;13.70;;;7.07;;
29728;SDS011;20055;51.498;11.960;2023-08-21T00:13:34;12.00;;;6.30;;
29728;SDS011;20055;51.498;11.960;2023-08-21T00:16:00;22.88;;;6.35;;
29728;SDS011;20055;51.498;11.960;2023-08-21T00:18:26;15.27;;;7.00;;
29728;SDS011;20055;51.498;11.960;2023-08-21T00:20:52;12.48;;;6.55;;
29728;SDS011;20055;51.498;11.960;2023-08-21T00:23:19;12.30;;;6.90;;
29728;SDS011;20055;51.498;11.960;2023-08-21T00:25:46;15.13;;;7.05;;
29728;SDS011;20055;51.498;11.960;2023-08-21T00:28:13;17.40;;;7.20;;
29728;SDS011;20055;51.498;11.960;2023-08-21T00:30:41;16.15;;;7.35;;
29728;SDS011;20055;51.498;11.960;2023-08-21T00:33:08;10.27;;;6.45;;
29728;SDS011;20055;51.498;11.960;2023-08-21T00:35:34;14.07;;;7.25;;
29728;SDS011;20055;51.498;11.960;2023-08-21T00:38:00;13.85;;;7.13;;
29728;SDS011;20055;51.498;11.960;2023-08-21T00:40:27;13.13;;;6.32;;
29728;SDS011;20055;51.498;11.960;2023-08-21T00:42:54;16.85;;;6.95;;
29728;SDS011;20055;51.498;11.960;2023-08-21T00:45:21;12.48;;;7.05;;
29728;SDS011;20055;51.498;11.960;2023-08-21T00:47:48;13.50;;;7.45;;
29728;SDS011;20055;51.498;11.960;2023-08-21T00:50:14;14.95;;;7.88;;
29728;SDS011;20055;51.498;11.960;2023-08-21T00:52:42;9.63;;;7.00;;
29728;SDS011;20055;51.498;11.960;2023-08-21T00:55:11;9.70;;;6.43;;
29728;SDS011;20055;51.498;11.960;2023-08-21T00:57:39;13.57;;;6.72;;
29728;SDS011;20055;51.498;11.960;2023-08-21T01:00:07;10.75;;;6.47;;
29728;SDS011;20055;51.498;11.960;2023-08-21T01:02:36;12.57;;;6.87;;
29728;SDS011;20055;51.498;11.960;2023-08-21T01:05:02;13.68;;;6.80;;
29728;SDS011;20055;51.498;11.960;2023-08-21T01:07:31;14.27;;;7.22;;
29728;SDS011;20055;51.498;11.960;2023-08-21T01:10:10;11.82;;;7.03;;
29728;SDS011;20055;51.498;11.960;2023-08-21T01:13:30;15.48;;;7.68;;
29728;SDS011;20055;51.498;11.960;2023-08-21T01:15:45;15.52;;;7.20;;
29728;SDS011;20055;51.498;11.960;2023-08-21T01:18:13;16.48;;;7.03;;
29728;SDS011;20055;51.498;11.960;2023-08-21T01:20:41;16.42;;;7.70;;
29728;SDS011;20055;51.498;11.960;2023-08-21T01:23:09;14.90;;;8.45;;
29728;SDS011;20055;51.498;11.960;2023-08-21T01:25:36;16.05;;;7.80;;
29728;SDS011;20055;51.498;11.960;2023-08-21T01:28:03;16.75;;;7.95;;
29728;SDS011;20055;51.498;11.960;2023-08-21T01:30:30;14.55;;;7.68;;
29728;SDS011;20055;51.498;11.960;2023-08-21T01:33:00;15.52;;;7.50;;
29728;SDS011;20055;51.498;11.960;2023-08-21T01:35:39;14.77;;;7.15;;
29728;SDS011;20055;51.498;11.960;2023-08-21T01:38:06;16.80;;;8.90;;
29728;SDS011;20055;51.498;11.960;2023-08-21T01:40:33;11.63;;;6.93;;
29728;SDS011;20055;51.498;11.960;2023-08-21T01:42:59;22.65;;;7.35;;
29728;SDS011;20055;51.498;11.960;2023-08-21T01:45:26;13.73;;;6.70;;
29728;SDS011;20055;51.498;11.960;2023-08-21T01:47:53;22.13;;;7.03;;
29728;SDS011;20055;51.498;11.960;2023-08-21T01:50:19;15.95;;;7.65;;
29728;SDS011;20055;51.498;11.960;2023-08-21T01:52:45;18.33;;;6.90;;
29728;SDS011;20055;51.498;11.960;2023-08-21T01:55:12;22.90;;;8.98;;
29728;SDS011;20055;51.498;11.960;2023-08-21T01:57:39;12.15;;;7.32;;
29728;SDS011;20055;51.498;11.960;2023-08-21T02:00:08;13.13;;;7.63;;
29728;SDS011;20055;51.498;11.960;2023-08-21T02:02:40;15.98;;;7.10;;
29728;SDS011;20055;51.498;11.960;2023-08-21T02:05:07;18.40;;;7.25;;
29728;SDS011;20055;51.498;11.960;2023-08-21T02:07:33;17.10;;;7.25;;
29728;SDS011;20055;51.498;11.960;2023-08-21T02:09:59;20.30;;;7.13;;
29728;SDS011;20055;51.498;11.960;2023-08-21T02:12:25;11.63;;;6.57;;
29728;SDS011;20055;51.498;11.960;2023-08-21T02:14:52;16.73;;;7.05;;
29728;SDS011;20055;51.498;11.960;2023-08-21T02:17:19;16.17;;;7.22;;
29728;SDS011;20055;51.498;11.960;2023-08-21T02:19:45;14.85;;;7.88;;
29728;SDS011;20055;51.498;11.960;2023-08-21T02:22:11;16.60;;;8.55;;
29728;SDS011;20055;51.498;11.960;2023-08-21T02:24:38;11.93;;;7.50;;
29728;SDS011;20055;51.498;11.960;2023-08-21T02:27:04;17.70;;;8.18;;
29728;SDS011;20055;51.498;11.960;2023-08-21T02:29:30;16.40;;;7.90;;
29728;SDS011;20055;51.498;11.960;2023-08-21T02:31:56;18.00;;;7.40;;
29728;SDS011;20055;51.498;11.960;2023-08-21T02:34:23;19.65;;;8.27;;
29728;SDS011;20055;51.498;11.960;2023-08-21T02:36:49;18.08;;;8.80;;
29728;SDS011;20055;51.498;11.960;2023-08-21T02:39:15;17.10;;;8.55;;
29728;SDS011;20055;51.498;11.960;2023-08-21T02:41:41;19.88;;;8.93;;
29728;SDS011;20055;51.498;11.960;2023-08-21T02:44:07;16.08;;;9.15;;
29728;SDS011;20055;51.498;11.960;2023-08-21T02:46:34;21.85;;;9.32;;
29728;SDS011;20055;51.498;11.960;2023-08-21T02:49:03;18.03;;;9.83;;
29728;SDS011;20055;51.498;11.960;2023-08-21T02:51:29;18.20;;;9.32;;
29728;SDS011;20055;51.498;11.960;2023-08-21T02:53:56;20.73;;;9.32;;
29728;SDS011;20055;51.498;11.960;2023-08-21T02:56:22;17.17;;;8.85;;
29728;SDS011;20055;51.498;11.960;2023-08-21T02:58:48;18.98;;;9.68;;
29728;SDS011;20055;51.498;11.960;2023-08-21T03:01:15;16.67;;;8.68;;
29728;SDS011;20055;51.498;11.960;2023-08-21T03:03:42;20.55;;;8.98;;
29728;SDS011;20055;51.498;11.960;2023-08-21T03:06:08;14.68;;;9.15;;
29728;SDS011;20055;51.498;11.960;2023-08-21T03:08:35;16.83;;;9.52;;
29728;SDS011;20055;51.498;11.960;2023-08-21T03:11:02;16.88;;;8.52;;
29728;SDS011;20055;51.498;11.960;2023-08-21T03:13:28;19.13;;;9.55;;
29728;SDS011;20055;51.498;11.960;2023-08-21T03:15:55;16.52;;;8.80;;
29728;SDS011;20055;51.498;11.960;2023-08-21T03:18:21;21.15;;;8.90;;
29728;SDS011;20055;51.498;11.960;2023-08-21T03:20:47;31.83;;;9.27;;
29728;SDS011;20055;51.498;11.960;2023-08-21T03:23:13;21.58;;;9.48;;
29728;SDS011;20055;51.498;11.960;2023-08-21T03:25:40;13.75;;;9.23;;
29728;SDS011;20055;51.498;11.960;2023-08-21T03:28:07;20.58;;;9.23;;
29728;SDS011;20055;51.498;11.960;2023-08-21T03:30:33;18.77;;;8.98;;
29728;SDS011;20055;51.498;11.960;2023-08-21T03:32:59;20.63;;;9.27;;
29728;SDS011;20055;51.498;11.960;2023-08-21T03:35:25;15.25;;;9.38;;
29728;SDS011;20055;51.498;11.960;2023-08-21T03:37:52;15.63;;;9.20;;
29728;SDS011;20055;51.498;11.960;2023-08-21T03:40:18;17.52;;;9.77;;
29728;SDS011;20055;51.498;11.960;2023-08-21T03:42:46;18.77;;;9.73;;
29728;SDS011;20055;51.498;11.960;2023-08-21T03:45:12;19.40;;;10.35;;
29728;SDS011;20055;51.498;11.960;2023-08-21T03:47:39;24.77;;;9.38;;
29728;SDS011;20055;51.498;11.960;2023-08-21T03:50:12;23.60;;;9.85;;
29728;SDS011;20055;51.498;11.960;2023-08-21T03:52:38;19.92;;;10.20;;
29728;SDS011;20055;51.498;11.960;2023-08-21T03:55:04;21.13;;;9.68;;
29728;SDS011;20055;51.498;11.960;2023-08-21T03:57:30;27.10;;;9.90;;
29728;SDS011;20055;51.498;11.960;2023-08-21T03:59:57;25.30;;;10.00;;
29728;SDS011;20055;51.498;11.960;2023-08-21T04:02:24;21.08;;;9.65;;
29728;SDS011;20055;51.498;11.960;2023-08-21T04:04:50;13.18;;;8.55;;
29728;SDS011;20055;51.498;11.960;2023-08-21T04:07:18;22.73;;;8.50;;
29728;SDS011;20055;51.498;11.960;2023-08-21T04:09:44;22.35;;;8.35;;
29728;SDS011;20055;51.498;11.960;2023-08-21T04:12:11;15.52;;;7.68;;
29728;SDS011;20055;51.498;11.960;2023-08-21T04:14:38;13.02;;;8.10;;
29728;SDS011;20055;51.498;11.960;2023-08-21T04:17:04;15.60;;;8.77;;
29728;SDS011;20055;51.498;11.960;2023-08-21T04:19:31;23.17;;;9.05;;
29728;SDS011;20055;51.498;11.960;2023-08-21T04:22:01;12.25;;;7.05;;
29728;SDS011;20055;51.498;11.960;2023-08-21T04:24:28;14.27;;;7.57;;
29728;SDS011;20055;51.498;11.960;2023-08-21T04:26:54;18.98;;;7.68;;
29728;SDS011;20055;51.498;11.960;2023-08-21T04:29:20;17.48;;;7.90;;
29728;SDS011;20055;51.498;11.960;2023-08-21T04:31:46;28.77;;;9.00;;
29728;SDS011;20055;51.498;11.960;2023-08-21T04:34:13;18.58;;;8.40;;
29728;SDS011;20055;51.498;11.960;2023-08-21T04:36:40;14.32;;;7.28;;
29728;SDS011;20055;51.498;11.960;2023-08-21T04:39:06;13.80;;;6.85;;
29728;SDS011;20055;51.498;11.960;2023-08-21T04:41:33;11.73;;;7.22;;
29728;SDS011;20055;51.498;11.960;2023-08-21T04:43:59;21.77;;;7.55;;
29728;SDS011;20055;51.498;11.960;2023-08-21T04:46:26;22.35;;;8.15;;
29728;SDS011;20055;51.498;11.960;2023-08-21T04:48:52;21.10;;;7.50;;
29728;SDS011;20055;51.498;11.960;2023-08-21T04:51:18;13.55;;;7.07;;
29728;SDS011;20055;51.498;11.960;2023-08-21T04:53:46;14.98;;;7.55;;
29728;SDS011;20055;51.498;11.960;2023-08-21T04:56:17;16.23;;;8.40;;
29728;SDS011;20055;51.498;11.960;2023-08-21T04:58:43;14.25;;;6.72;;
29728;SDS011;20055;51.498;11.960;2023-08-21T05:01:09;19.48;;;7.75;;
29728;SDS011;20055;51.498;11.960;2023-08-21T05:03:40;13.32;;;7.43;;
29728;SDS011;20055;51.498;11.960;2023-08-21T05:06:07;20.20;;;7.22;;
29728;SDS011;20055;51.498;11.960;2023-08-21T05:08:34;19.23;;;7.03;;
29728;SDS011;20055;51.498;11.960;2023-08-21T05:11:01;16.17;;;7.03;;
29728;SDS011;20055;51.498;11.960;2023-08-21T05:13:31;16.67;;;7.22;;
29728;SDS011;20055;51.498;11.960;2023-08-21T05:15:58;14.98;;;7.97;;
29728;SDS011;20055;51.498;11.960;2023-08-21T05:18:28;19.77;;;6.95;;
29728;SDS011;20055;51.498;11.960;2023-08-21T05:20:55;14.77;;;7.13;;
29728;SDS011;20055;51.498;11.960;2023-08-21T05:23:22;16.88;;;7.30;;
29728;SDS011;20055;51.498;11.960;2023-08-21T05:25:51;13.30;;;6.93;;
29728;SDS011;20055;51.498;11.960;2023-08-21T05:28:17;23.23;;;6.97;;
29728;SDS011;20055;51.498;11.960;2023-08-21T05:30:46;15.82;;;6.60;;
29728;SDS011;20055;51.498;11.960;2023-08-21T05:33:14;16.67;;;6.60;;
29728;SDS011;20055;51.498;11.960;2023-08-21T05:35:42;16.65;;;7.07;;
29728;SDS011;20055;51.498;11.960;2023-08-21T05:38:09;17.70;;;6.93;;
29728;SDS011;20055;51.498;11.960;2023-08-21T05:40:36;23.15;;;7.45;;
29728;SDS011;20055;51.498;11.960;2023-08-21T05:43:02;15.88;;;6.68;;
29728;SDS011;20055;51.498;11.960;2023-08-21T05:45:30;16.73;;;6.20;;
29728;SDS011;20055;51.498;11.960;2023-08-21T05:47:56;13.20;;;6.95;;
29728;SDS011;20055;51.498;11.960;2023-08-21T05:50:23;21.15;;;7.20;;
29728;SDS011;20055;51.498;11.960;2023-08-21T05:52:49;18.45;;;7.03;;
29728;SDS011;20055;51.498;11.960;2023-08-21T05:55:15;18.42;;;6.10;;
29728;SDS011;20055;51.498;11.960;2023-08-21T05:57:43;22.00;;;7.05;;
29728;SDS011;20055;51.498;11.960;2023-08-21T06:00:09;16.30;;;5.85;;
29728;SDS011;20055;51.498;11.960;2023-08-21T06:02:42;15.48;;;7.28;;
29728;SDS011;20055;51.498;11.960;2023-08-21T06:07:38;11.98;;;5.95;;
29728;SDS011;20055;51.498;11.960;2023-08-21T06:10:07;16.05;;;6.03;;
29728;SDS011;20055;51.498;11.960;2023-08-21T06:12:34;14.30;;;5.78;;
29728;SDS011;20055;51.498;11.960;2023-08-21T06:15:00;19.92;;;6.13;;
29728;SDS011;20055;51.498;11.960;2023-08-21T06:17:27;19.30;;;6.40;;
29728;SDS011;20055;51.498;11.960;2023-08-21T06:19:54;14.60;;;6.25;;
29728;SDS011;20055;51.498;11.960;2023-08-21T06:22:20;14.57;;;5.47;;
29728;SDS011;20055;51.498;11.960;2023-08-21T06:24:46;15.55;;;6.18;;
29728;SDS011;20055;51.498;11.960;2023-08-21T06:27:15;16.55;;;5.35;;
29728;SDS011;20055;51.498;11.960;2023-08-21T06:29:41;16.63;;;6.53;;
29728;SDS011;20055;51.498;11.960;2023-08-21T06:32:08;17.98;;;6.68;;
29728;SDS011;20055;51.498;11.960;2023-08-21T06:34:34;16.92;;;5.93;;
29728;SDS011;20055;51.498;11.960;2023-08-21T06:37:01;18.42;;;6.45;;
29728;SDS011;20055;51.498;11.960;2023-08-21T06:39:27;13.40;;;5.35;;
29728;SDS011;20055;51.498;11.960;2023-08-21T06:41:56;16.33;;;5.03;;
29728;SDS011;20055;51.498;11.960;2023-08-21T06:44:31;15.00;;;5.00;;
29728;SDS011;20055;51.498;11.960;2023-08-21T06:46:57;11.73;;;5.82;;
29728;SDS011;20055;51.498;11.960;2023-08-21T06:49:23;12.75;;;5.25;;
29728;SDS011;20055;51.498;11.960;2023-08-21T06:51:49;12.60;;;5.38;;
29728;SDS011;20055;51.498;11.960;2023-08-21T06:54:16;20.85;;;5.63;;
29728;SDS011;20055;51.498;11.960;2023-08-21T06:56:43;12.35;;;6.30;;
29728;SDS011;20055;51.498;11.960;2023-08-21T06:59:10;17.38;;;6.07;;
29728;SDS011;20055;51.498;11.960;2023-08-21T07:01:36;13.90;;;6.22;;
29728;SDS011;20055;51.498;11.960;2023-08-21T07:04:03;16.13;;;5.55;;
29728;SDS011;20055;51.498;11.960;2023-08-21T07:06:30;12.57;;;6.85;;
29728;SDS011;20055;51.498;11.960;2023-08-21T07:08:56;13.10;;;5.47;;
29728;SDS011;20055;51.498;11.960;2023-08-21T07:11:22;18.15;;;6.53;;
29728;SDS011;20055;51.498;11.960;2023-08-21T07:13:48;15.15;;;6.07;;
29728;SDS011;20055;51.498;11.960;2023-08-21T07:16:15;15.18;;;6.43;;
29728;SDS011;20055;51.498;11.960;2023-08-21T07:18:41;14.35;;;6.95;;
29728;SDS011;20055;51.498;11.960;2023-08-21T07:21:07;10.60;;;5.55;;
29728;SDS011;20055;51.498;11.960;2023-08-21T07:23:34;18.92;;;7.18;;
29728;SDS011;20055;51.498;11.960;2023-08-21T07:26:00;14.25;;;6.72;;
29728;SDS011;20055;51.498;11.960;2023-08-21T07:28:26;14.98;;;6.97;;
29728;SDS011;20055;51.498;11.960;2023-08-21T07:30:59;21.65;;;7.72;;
29728;SDS011;20055;51.498;11.960;2023-08-21T07:33:26;17.02;;;6.47;;
29728;SDS011;20055;51.498;11.960;2023-08-21T07:38:26;13.35;;;6.90;;
29728;SDS011;20055;51.498;11.960;2023-08-21T07:41:02;18.67;;;6.45;;
29728;SDS011;20055;51.498;11.960;2023-08-21T07:43:34;26.75;;;7.47;;
29728;SDS011;20055;51.498;11.960;2023-08-21T07:46:03;14.55;;;6.72;;
29728;SDS011;20055;51.498;11.960;2023-08-21T07:50:57;15.05;;;6.78;;
29728;SDS011;20055;51.498;11.960;2023-08-21T07:53:24;12.38;;;5.97;;
29728;SDS011;20055;51.498;11.960;2023-08-21T07:55:50;11.48;;;6.40;;
29728;SDS011;20055;51.498;11.960;2023-08-21T07:58:18;18.73;;;6.15;;
29728;SDS011;20055;51.498;11.960;2023-08-21T08:00:45;19.45;;;6.72;;
29728;SDS011;20055;51.498;11.960;2023-08-21T08:03:11;18.05;;;6.43;;
29728;SDS011;20055;51.498;11.960;2023-08-21T08:05:40;17.15;;;6.75;;
29728;SDS011;20055;51.498;11.960;2023-08-21T08:08:07;14.93;;;6.00;;
29728;SDS011;20055;51.498;11.960;2023-08-21T08:10:40;21.40;;;6.85;;
29728;SDS011;20055;51.498;11.960;2023-08-21T08:13:07;21.80;;;6.78;;
29728;SDS011;20055;51.498;11.960;2023-08-21T08:15:33;17.17;;;6.85;;
29728;SDS011;20055;51.498;11.960;2023-08-21T08:18:01;15.23;;;6.25;;
29728;SDS011;20055;51.498;11.960;2023-08-21T08:20:28;16.73;;;6.93;;
29728;SDS011;20055;51.498;11.960;2023-08-21T08:22:55;21.77;;;6.72;;
29728;SDS011;20055;51.498;11.960;2023-08-21T08:25:22;20.17;;;6.85;;
29728;SDS011;20055;51.498;11.960;2023-08-21T08:27:48;9.02;;;5.10;;
29728;SDS011;20055;51.498;11.960;2023-08-21T08:30:15;16.90;;;5.80;;
29728;SDS011;20055;51.498;11.960;2023-08-21T08:32:44;11.85;;;4.38;;
29728;SDS011;20055;51.498;11.960;2023-08-21T08:35:14;20.60;;;6.15;;
29728;SDS011;20055;51.498;11.960;2023-08-21T08:37:41;11.32;;;5.35;;
29728;SDS011;20055;51.498;11.960;2023-08-21T08:40:07;14.07;;;4.60;;
29728;SDS011;20055;51.498;11.960;2023-08-21T08:42:35;13.02;;;5.05;;
29728;SDS011;20055;51.498;11.960;2023-08-21T08:45:02;14.98;;;4.85;;
29728;SDS011;20055;51.498;11.960;2023-08-21T08:47:31;7.82;;;4.38;;
29728;SDS011;20055;51.498;11.960;2023-08-21T08:49:59;8.38;;;4.38;;
29728;SDS011;20055;51.498;11.960;2023-08-21T08:52:34;9.95;;;5.07;;
29728;SDS011;20055;51.498;11.960;2023-08-21T08:55:02;9.27;;;4.40;;
29728;SDS011;20055;51.498;11.960;2023-08-21T08:57:30;10.43;;;4.55;;
29728;SDS011;20055;51.498;11.960;2023-08-21T08:59:56;8.65;;;3.47;;
29728;SDS011;20055;51.498;11.960;2023-08-21T09:02:23;10.30;;;3.60;;
29728;SDS011;20055;51.498;11.960;2023-08-21T09:04:53;11.10;;;4.03;;
29728;SDS011;20055;51.498;11.960;2023-08-21T09:07:20;8.90;;;3.85;;
29728;SDS011;20055;51.498;11.960;2023-08-21T09:09:47;13.30;;;3.30;;
29728;SDS011;20055;51.498;11.960;2023-08-21T09:12:16;7.85;;;3.40;;
29728;SDS011;20055;51.498;11.960;2023-08-21T09:14:43;8.63;;;2.50;;
29728;SDS011;20055;51.498;11.960;2023-08-21T09:17:10;6.80;;;3.03;;
29728;SDS011;20055;51.498;11.960;2023-08-21T09:19:38;10.52;;;3.17;;
29728;SDS011;20055;51.498;11.960;2023-08-21T09:22:11;7.68;;;3.13;;
29728;SDS011;20055;51.498;11.960;2023-08-21T09:24:39;14.82;;;3.22;;
29728;SDS011;20055;51.498;11.960;2023-08-21T09:27:13;4.97;;;2.40;;
29728;SDS011;20055;51.498;11.960;2023-08-21T09:29:42;5.43;;;2.28;;
29728;SDS011;20055;51.498;11.960;2023-08-21T09:32:09;5.70;;;2.97;;
29728;SDS011;20055;51.498;11.960;2023-08-21T09:34:36;12.95;;;2.90;;
29728;SDS011;20055;51.498;11.960;2023-08-21T09:37:06;9.68;;;2.85;;
29728;SDS011;20055;51.498;11.960;2023-08-21T09:39:34;6.00;;;1.92;;
29728;SDS011;20055;51.498;11.960;2023-08-21T09:42:07;6.35;;;2.22;;
29728;SDS011;20055;51.498;11.960;2023-08-21T09:44:38;8.43;;;2.58;;
29728;SDS011;20055;51.498;11.960;2023-08-21T09:47:08;11.73;;;2.30;;
29728;SDS011;20055;51.498;11.960;2023-08-21T09:49:35;8.57;;;2.60;;
29728;SDS011;20055;51.498;11.960;2023-08-21T09:52:04;3.25;;;2.10;;
29728;SDS011;20055;51.498;11.960;2023-08-21T09:54:50;5.88;;;2.50;;
29728;SDS011;20055;51.498;11.960;2023-08-21T09:57:21;3.88;;;2.20;;
29728;SDS011;20055;51.498;11.960;2023-08-21T09:59:51;5.97;;;2.40;;
29728;SDS011;20055;51.498;11.960;2023-08-21T10:02:19;8.70;;;2.80;;
29728;SDS011;20055;51.498;11.960;2023-08-21T10:04:46;7.35;;;2.88;;
29728;SDS011;20055;51.498;11.960;2023-08-21T10:07:16;9.60;;;2.45;;
29728;SDS011;20055;51.498;11.960;2023-08-21T10:09:46;12.52;;;2.60;;
29728;SDS011;20055;51.498;11.960;2023-08-21T10:12:14;9.15;;;2.38;;
29728;SDS011;20055;51.498;11.960;2023-08-21T10:14:42;6.22;;;1.98;;
29728;SDS011;20055;51.498;11.960;2023-08-21T10:17:09;5.30;;;2.20;;
29728;SDS011;20055;51.498;11.960;2023-08-21T10:19:35;8.25;;;2.97;;
29728;SDS011;20055;51.498;11.960;2023-08-21T10:22:02;6.18;;;2.05;;
29728;SDS011;20055;51.498;11.960;2023-08-21T10:24:36;4.75;;;2.10;;
29728;SDS011;20055;51.498;11.960;2023-08-21T10:27:08;5.32;;;1.67;;
29728;SDS011;20055;51.498;11.960;2023-08-21T10:29:38;5.28;;;1.50;;
29728;SDS011;20055;51.498;11.960;2023-08-21T10:32:04;3.15;;;1.65;;
29728;SDS011;20055;51.498;11.960;2023-08-21T10:34:35;3.00;;;1.85;;
29728;SDS011;20055;51.498;11.960;2023-08-21T10:39:31;6.57;;;2.20;;
29728;SDS011;20055;51.498;11.960;2023-08-21T10:42:09;5.38;;;2.22;;
29728;SDS011;20055;51.498;11.960;2023-08-21T10:49:44;5.13;;;2.85;;
29728;SDS011;20055;51.498;11.960;2023-08-21T10:52:23;4.30;;;2.08;;
29728;SDS011;20055;51.498;11.960;2023-08-21T10:54:52;6.70;;;2.22;;
29728;SDS011;20055;51.498;11.960;2023-08-21T10:57:20;6.13;;;2.28;;
29728;SDS011;20055;51.498;11.960;2023-08-21T11:02:46;7.50;;;2.55;;
29728;SDS011;20055;51.498;11.960;2023-08-21T11:05:15;5.45;;;2.58;;
29728;SDS011;20055;51.498;11.960;2023-08-21T11:07:42;6.40;;;2.20;;
29728;SDS011;20055;51.498;11.960;2023-08-21T11:10:10;4.43;;;2.20;;
29728;SDS011;20055;51.498;11.960;2023-08-21T11:12:47;6.55;;;2.58;;
29728;SDS011;20055;51.498;11.960;2023-08-21T11:15:16;6.47;;;3.60;;
29728;SDS011;20055;51.498;11.960;2023-08-21T11:17:50;6.72;;;3.00;;
29728;SDS011;20055;51.498;11.960;2023-08-21T11:22:57;7.45;;;2.70;;
29728;SDS011;20055;51.498;11.960;2023-08-21T11:25:28;9.18;;;2.42;;
29728;SDS011;20055;51.498;11.960;2023-08-21T11:27:55;7.78;;;3.22;;
29728;SDS011;20055;51.498;11.960;2023-08-21T11:30:22;7.35;;;2.50;;
29728;SDS011;20055;51.498;11.960;2023-08-21T11:33:06;7.05;;;2.63;;
29728;SDS011;20055;51.498;11.960;2023-08-21T11:35:32;7.45;;;3.33;;
29728;SDS011;20055;51.498;11.960;2023-08-21T11:37:59;7.78;;;3.55;;
29728;SDS011;20055;51.498;11.960;2023-08-21T11:40:25;7.13;;;3.83;;
29728;SDS011;20055;51.498;11.960;2023-08-21T11:42:51;9.45;;;4.18;;
29728;SDS011;20055;51.498;11.960;2023-08-21T11:45:21;10.23;;;3.58;;
29728;SDS011;20055;51.498;11.960;2023-08-21T11:47:47;10.32;;;4.18;;
29728;SDS011;20055;51.498;11.960;2023-08-21T11:50:14;8.25;;;3.15;;
29728;SDS011;20055;51.498;11.960;2023-08-21T11:52:41;9.98;;;3.83;;
29728;SDS011;20055;51.498;11.960;2023-08-21T11:55:08;5.45;;;3.60;;
29728;SDS011;20055;51.498;11.960;2023-08-21T12:00:15;6.18;;;2.85;;
29728;SDS011;20055;51.498;11.960;2023-08-21T12:02:53;14.55;;;4.10;;
29728;SDS011;20055;51.498;11.960;2023-08-21T12:05:24;5.15;;;3.00;;
29728;SDS011;20055;51.498;11.960;2023-08-21T12:07:52;12.18;;;3.92;;
29728;SDS011;20055;51.498;11.960;2023-08-21T12:10:22;6.13;;;3.50;;
29728;SDS011;20055;51.498;11.960;2023-08-21T12:12:51;5.82;;;3.30;;
29728;SDS011;20055;51.498;11.960;2023-08-21T12:15:18;7.53;;;3.70;;
29728;SDS011;20055;51.498;11.960;2023-08-21T12:17:45;10.18;;;3.47;;
29728;SDS011;20055;51.498;11.960;2023-08-21T12:20:12;9.13;;;3.17;;
29728;SDS011;20055;51.498;11.960;2023-08-21T12:22:38;6.97;;;3.95;;
29728;SDS011;20055;51.498;11.960;2023-08-21T12:25:06;7.47;;;3.90;;
29728;SDS011;20055;51.498;11.960;2023-08-21T12:27:33;6.25;;;3.35;;
29728;SDS011;20055;51.498;11.960;2023-08-21T12:29:59;5.55;;;3.00;;
29728;SDS011;20055;51.498;11.960;2023-08-21T12:32:26;8.98;;;3.22;;
29728;SDS011;20055;51.498;11.960;2023-08-21T12:34:52;10.73;;;3.10;;
29728;SDS011;20055;51.498;11.960;2023-08-21T12:37:19;8.80;;;3.30;;
29728;SDS011;20055;51.498;11.960;2023-08-21T12:39:45;8.35;;;3.80;;
29728;SDS011;20055;51.498;11.960;2023-08-21T12:42:11;6.57;;;3.10;;
29728;SDS011;20055;51.498;11.960;2023-08-21T12:44:38;11.30;;;3.10;;
29728;SDS011;20055;51.498;11.960;2023-08-21T12:47:04;6.55;;;2.72;;
29728;SDS011;20055;51.498;11.960;2023-08-21T12:49:30;5.28;;;3.20;;
29728;SDS011;20055;51.498;11.960;2023-08-21T12:51:56;9.70;;;3.28;;
29728;SDS011;20055;51.498;11.960;2023-08-21T12:54:23;7.10;;;3.75;;
29728;SDS011;20055;51.498;11.960;2023-08-21T12:56:49;6.45;;;2.97;;
29728;SDS011;20055;51.498;11.960;2023-08-21T12:59:15;8.88;;;2.95;;
29728;SDS011;20055;51.498;11.960;2023-08-21T13:01:42;6.25;;;3.00;;
29728;SDS011;20055;51.498;11.960;2023-08-21T13:04:08;10.18;;;3.80;;
29728;SDS011;20055;51.498;11.960;2023-08-21T13:06:35;9.48;;;3.05;;
29728;SDS011;20055;51.498;11.960;2023-08-21T13:09:02;8.35;;;2.83;;
29728;SDS011;20055;51.498;11.960;2023-08-21T13:11:29;9.00;;;2.92;;
29728;SDS011;20055;51.498;11.960;2023-08-21T13:13:55;10.00;;;2.90;;
29728;SDS011;20055;51.498;11.960;2023-08-21T13:16:21;5.80;;;2.83;;
29728;SDS011;20055;51.498;11.960;2023-08-21T13:18:48;8.70;;;2.83;;
29728;SDS011;20055;51.498;11.960;2023-08-21T13:21:14;12.10;;;3.22;;
29728;SDS011;20055;51.498;11.960;2023-08-21T13:23:40;8.15;;;3.40;;
29728;SDS011;20055;51.498;11.960;2023-08-21T13:26:06;9.73;;;2.88;;
29728;SDS011;20055;51.498;11.960;2023-08-21T13:28:33;6.90;;;2.70;;
29728;SDS011;20055;51.498;11.960;2023-08-21T13:30:59;10.25;;;2.83;;
29728;SDS011;20055;51.498;11.960;2023-08-21T13:33:26;10.95;;;4.55;;
29728;SDS011;20055;51.498;11.960;2023-08-21T13:35:52;9.73;;;3.22;;
29728;SDS011;20055;51.498;11.960;2023-08-21T13:38:18;5.53;;;2.72;;
29728;SDS011;20055;51.498;11.960;2023-08-21T13:40:44;7.07;;;2.92;;
29728;SDS011;20055;51.498;11.960;2023-08-21T13:43:10;7.80;;;3.10;;
29728;SDS011;20055;51.498;11.960;2023-08-21T13:45:38;6.45;;;2.97;;
29728;SDS011;20055;51.498;11.960;2023-08-21T13:48:05;5.35;;;3.15;;
29728;SDS011;20055;51.498;11.960;2023-08-21T13:50:32;5.35;;;2.50;;
29728;SDS011;20055;51.498;11.960;2023-08-21T13:52:58;6.20;;;2.75;;
29728;SDS011;20055;51.498;11.960;2023-08-21T13:55:24;10.02;;;3.17;;
29728;SDS011;20055;51.498;11.960;2023-08-21T13:57:50;6.63;;;2.83;;
29728;SDS011;20055;51.498;11.960;2023-08-21T14:00:17;6.80;;;2.95;;
29728;SDS011;20055;51.498;11.960;2023-08-21T14:02:43;8.07;;;2.78;;
29728;SDS011;20055;51.498;11.960;2023-08-21T14:05:10;5.85;;;2.40;;
29728;SDS011;20055;51.498;11.960;2023-08-21T14:07:36;3.90;;;3.00;;
29728;SDS011;20055;51.498;11.960;2023-08-21T14:10:03;8.95;;;3.22;;
29728;SDS011;20055;51.498;11.960;2023-08-21T14:12:33;4.82;;;2.60;;
29728;SDS011;20055;51.498;11.960;2023-08-21T14:14:59;7.75;;;3.15;;
29728;SDS011;20055;51.498;11.960;2023-08-21T14:17:26;6.38;;;2.97;;
29728;SDS011;20055;51.498;11.960;2023-08-21T14:19:53;6.57;;;2.90;;
29728;SDS011;20055;51.498;11.960;2023-08-21T14:22:20;6.78;;;3.10;;
29728;SDS011;20055;51.498;11.960;2023-08-21T14:24:47;6.78;;;3.28;;
29728;SDS011;20055;51.498;11.960;2023-08-21T14:27:13;9.85;;;2.72;;
29728;SDS011;20055;51.498;11.960;2023-08-21T14:29:39;6.45;;;3.45;;
29728;SDS011;20055;51.498;11.960;2023-08-21T14:32:08;6.30;;;3.17;;
29728;SDS011;20055;51.498;11.960;2023-08-21T14:34:35;4.28;;;2.67;;
29728;SDS011;20055;51.498;11.960;2023-08-21T14:37:01;7.10;;;2.72;;
29728;SDS011;20055;51.498;11.960;2023-08-21T14:39:29;3.88;;;2.20;;
29728;SDS011;20055;51.498;11.960;2023-08-21T14:41:56;7.15;;;2.50;;
29728;SDS011;20055;51.498;11.960;2023-08-21T14:44:23;10.90;;;4.03;;
29728;SDS011;20055;51.498;11.960;2023-08-21T14:46:53;9.00;;;2.97;;
29728;SDS011;20055;51.498;11.960;2023-08-21T14:51:46;5.15;;;2.60;;
29728;SDS011;20055;51.498;11.960;2023-08-21T14:54:13;5.72;;;2.80;;